Time,TemperatureF,DewpointF,PressureIn,WindDirection,WindDirectionDegrees,WindSpeedMPH,WindSpeedGustMPH,Humidity,HourlyPrecipIn,Conditions,Clouds,dailyrainin,SolarRadiationWatts/m^2,SoftwareType,DateUTC
2013-03-27 00:03:00,35.0,24.0,-100.00,NW,322,0.0,2.0,64,0.00,,,0.00,0.000000,,2013-03-27 04:03:00,
2013-03-27 00:12:00,32.0,24.0,-100.00,NNW,333,0.0,1.0,72,0.00,,,-99.99,0.000000,,2013-03-27 04:12:00,
2013-03-27 00:33:00,32.0,24.0,-100.00,NNW,333,0.0,1.0,72,0.00,,,-99.99,0.000000,,2013-03-27 04:33:00,
2013-03-27 00:43:00,32.0,24.0,-100.00,NNW,333,0.0,1.0,72,0.00,,,-99.99,0.000000,,2013-03-27 04:43:00,
2013-03-27 00:53:00,32.0,24.0,-100.00,NNW,333,0.0,1.0,72,0.00,,,-99.99,0.000000,,2013-03-27 04:53:00,
2013-03-27 01:03:00,32.0,24.0,-100.00,NNW,333,0.0,1.0,72,0.00,,,-99.99,0.000000,,2013-03-27 05:03:00,
2013-03-27 01:12:00,32.0,24.0,-100.00,NNW,336,0.0,1.0,72,0.00,,,0.00,0.000000,,2013-03-27 05:12:00,
2013-03-27 01:42:00,32.0,24.0,-100.00,NNW,336,0.0,1.0,72,0.00,,,0.00,0.000000,,2013-03-27 05:42:00,
2013-03-27 01:53:00,32.0,24.0,-100.00,NNW,336,0.0,1.0,72,0.00,,,0.00,0.000000,,2013-03-27 05:53:00,
2013-03-27 02:02:00,32.0,24.0,-100.00,NNW,336,0.0,1.0,72,0.00,,,0.00,0.000000,,2013-03-27 06:02:00,
2013-03-27 02:12:00,31.0,24.0,-100.00,NNW,337,0.0,0.0,74,0.00,,,0.00,0.000000,,2013-03-27 06:12:00,
2013-03-27 02:32:00,31.0,24.0,-100.00,NNW,337,0.0,0.0,74,0.00,,,0.00,0.000000,,2013-03-27 06:32:00,
2013-03-27 02:42:00,31.0,24.0,-100.00,NNW,337,0.0,0.0,74,0.00,,,0.00,0.000000,,2013-03-27 06:42:00,
2013-03-27 02:53:00,31.0,24.0,-100.00,NNW,337,0.0,0.0,74,0.00,,,0.00,0.000000,,2013-03-27 06:53:00,
2013-03-27 03:02:00,31.0,24.0,-100.00,NNW,337,0.0,0.0,74,0.00,,,0.00,0.000000,,2013-03-27 07:02:00,
2013-03-27 03:12:00,30.0,23.0,-100.00,NNW,336,0.0,0.0,76,0.00,,,0.00,0.000000,,2013-03-27 07:12:00,
2013-03-27 03:32:00,30.0,23.0,-100.00,NNW,336,0.0,0.0,76,0.00,,,0.00,0.000000,,2013-03-27 07:32:00,
2013-03-27 03:43:00,30.0,23.0,-100.00,NNW,336,0.0,0.0,76,0.00,,,0.00,0.000000,,2013-03-27 07:43:00,
2013-03-27 03:54:00,30.0,23.0,-100.00,NNW,336,0.0,0.0,76,0.00,,,0.00,0.000000,,2013-03-27 07:54:00,
2013-03-27 04:02:00,30.0,23.0,-100.00,NNW,336,0.0,0.0,76,0.00,,,0.00,0.000000,,2013-03-27 08:02:00,
2013-03-27 04:12:00,28.0,23.0,-100.00,NNW,337,0.0,0.0,82,0.00,,,0.00,0.000000,,2013-03-27 08:12:00,
2013-03-27 04:32:00,28.0,23.0,-100.00,NNW,337,0.0,0.0,82,0.00,,,0.00,0.000000,,2013-03-27 08:32:00,
2013-03-27 04:43:00,28.0,23.0,-100.00,NNW,337,0.0,0.0,82,0.00,,,0.00,0.000000,,2013-03-27 08:43:00,
2013-03-27 04:52:00,28.0,23.0,-100.00,NNW,337,0.0,0.0,82,0.00,,,0.00,0.000000,,2013-03-27 08:52:00,
2013-03-27 05:02:00,28.0,23.0,-100.00,NNW,337,0.0,0.0,82,0.00,,,0.00,0.000000,,2013-03-27 09:02:00,
2013-03-27 05:12:00,27.0,23.0,-100.00,NW,326,0.0,1.0,84,0.00,,,0.00,0.000000,,2013-03-27 09:12:00,
2013-03-27 05:42:00,27.0,23.0,-100.00,NW,326,0.0,1.0,84,0.00,,,0.00,0.000000,,2013-03-27 09:42:00,
2013-03-27 05:52:00,27.0,23.0,-100.00,NW,326,0.0,1.0,84,0.00,,,0.00,0.000000,,2013-03-27 09:52:00,
2013-03-27 06:03:00,27.0,23.0,-100.00,NW,326,0.0,1.0,84,0.00,,,0.00,0.000000,,2013-03-27 10:03:00,
2013-03-27 06:12:00,28.0,23.0,-100.00,WNW,285,0.0,0.0,81,0.00,,,0.00,0.000000,,2013-03-27 10:12:00,
2013-03-27 06:32:00,28.0,23.0,-100.00,WNW,285,0.0,0.0,81,0.00,,,0.00,0.000000,,2013-03-27 10:32:00,
2013-03-27 06:42:00,28.0,23.0,-100.00,WNW,285,0.0,0.0,81,0.00,,,0.00,0.000000,,2013-03-27 10:42:00,
2013-03-27 06:53:00,28.0,23.0,-100.00,WNW,285,0.0,0.0,81,0.00,,,0.00,0.000000,,2013-03-27 10:53:00,
2013-03-27 07:03:00,28.0,23.0,-100.00,WNW,285,0.0,0.0,81,0.00,,,0.00,0.000000,,2013-03-27 11:03:00,
2013-03-27 07:12:00,28.0,24.0,-100.00,WNW,285,0.0,1.0,83,0.00,,,0.00,0.000000,,2013-03-27 11:12:00,
2013-03-27 07:32:00,28.0,24.0,-100.00,WNW,285,0.0,1.0,83,0.00,,,0.00,0.000000,,2013-03-27 11:32:00,
2013-03-27 07:42:00,28.0,24.0,-100.00,WNW,285,0.0,1.0,83,0.00,,,0.00,0.000000,,2013-03-27 11:42:00,
2013-03-27 07:53:00,28.0,24.0,-100.00,WNW,285,0.0,1.0,83,0.00,,,0.00,0.000000,,2013-03-27 11:53:00,
2013-03-27 08:02:00,28.0,24.0,-100.00,WNW,285,0.0,1.0,83,0.00,,,0.00,0.000000,,2013-03-27 12:02:00,
2013-03-27 08:12:00,28.0,23.0,-100.00,WNW,284,0.0,1.0,82,0.00,,,0.00,15.000000,,2013-03-27 12:12:00,
2013-03-27 08:32:00,28.0,23.0,-100.00,WNW,284,0.0,1.0,82,0.00,,,0.00,15.000000,,2013-03-27 12:32:00,
2013-03-27 08:43:00,28.0,23.0,-100.00,WNW,284,0.0,1.0,82,0.00,,,0.00,15.000000,,2013-03-27 12:43:00,
2013-03-27 08:52:00,28.0,23.0,-100.00,WNW,284,0.0,1.0,82,0.00,,,0.00,15.000000,,2013-03-27 12:52:00,
2013-03-27 09:02:00,28.0,23.0,-100.00,WNW,284,0.0,1.0,82,0.00,,,0.00,15.000000,,2013-03-27 13:02:00,
2013-03-27 09:12:00,34.0,25.0,-100.00,WNW,299,1.0,4.0,70,0.00,,,0.00,226.000000,,2013-03-27 13:12:00,
2013-03-27 09:42:00,34.0,25.0,-100.00,WNW,299,1.0,4.0,70,0.00,,,0.00,226.000000,,2013-03-27 13:42:00,
2013-03-27 09:53:00,34.0,25.0,-100.00,WNW,299,1.0,4.0,70,0.00,,,0.00,226.000000,,2013-03-27 13:53:00,
2013-03-27 10:02:00,34.0,25.0,-100.00,WNW,299,1.0,4.0,70,0.00,,,0.00,226.000000,,2013-03-27 14:02:00,
2013-03-27 10:12:00,43.0,26.0,-100.00,NW,324,1.0,3.0,51,0.00,,,0.00,167.000000,,2013-03-27 14:12:00,
2013-03-27 10:42:00,43.0,26.0,-100.00,NW,324,1.0,3.0,51,0.00,,,0.00,167.000000,,2013-03-27 14:42:00,
2013-03-27 10:52:00,43.0,26.0,-100.00,NW,324,1.0,3.0,51,0.00,,,0.00,167.000000,,2013-03-27 14:52:00,
2013-03-27 11:03:00,43.0,26.0,-100.00,NW,324,1.0,3.0,51,0.00,,,0.00,167.000000,,2013-03-27 15:03:00,
2013-03-27 11:12:00,47.0,24.0,-100.00,SW,224,3.0,9.0,40,0.00,,,0.00,586.000000,,2013-03-27 15:12:00,
2013-03-27 11:33:00,47.0,24.0,-100.00,SW,224,3.0,9.0,40,0.00,,,0.00,586.000000,,2013-03-27 15:33:00,
2013-03-27 11:43:00,47.0,24.0,-100.00,SW,224,3.0,9.0,40,0.00,,,0.00,586.000000,,2013-03-27 15:43:00,
2013-03-27 11:53:00,47.0,24.0,-100.00,SW,224,3.0,9.0,40,0.00,,,0.00,586.000000,,2013-03-27 15:53:00,
2013-03-27 12:03:00,47.0,24.0,-100.00,SW,224,3.0,9.0,40,0.00,,,0.00,586.000000,,2013-03-27 16:03:00,
2013-03-27 14:12:00,55.0,22.0,-100.00,WNW,289,2.0,8.0,27,-99.99,,,-99.99,938.000000,,2013-03-27 18:12:00,
2013-03-27 14:33:00,55.0,22.0,-100.00,WNW,289,2.0,8.0,27,-99.99,,,-99.99,938.000000,,2013-03-27 18:33:00,
2013-03-27 14:42:00,55.0,22.0,-100.00,WNW,289,2.0,8.0,27,-99.99,,,-99.99,938.000000,,2013-03-27 18:42:00,
2013-03-27 14:53:00,55.0,22.0,-100.00,WNW,289,2.0,8.0,27,-99.99,,,-99.99,938.000000,,2013-03-27 18:53:00,
2013-03-27 15:03:00,55.0,22.0,-100.00,WNW,289,2.0,8.0,27,-99.99,,,-99.99,938.000000,,2013-03-27 19:03:00,
2013-03-27 15:12:00,56.0,21.0,-100.00,West,281,2.0,10.0,25,0.00,,,0.00,885.000000,,2013-03-27 19:12:00,
2013-03-27 15:42:00,56.0,21.0,-100.00,West,281,2.0,10.0,25,0.00,,,0.00,885.000000,,2013-03-27 19:42:00,
2013-03-27 15:52:00,56.0,21.0,-100.00,West,281,2.0,10.0,25,0.00,,,0.00,885.000000,,2013-03-27 19:52:00,
2013-03-27 16:03:00,56.0,21.0,-100.00,West,281,2.0,10.0,25,0.00,,,0.00,885.000000,,2013-03-27 20:03:00,
2013-03-27 16:12:00,59.0,20.0,-100.00,West,263,2.0,8.0,22,0.00,,,0.00,771.000000,,2013-03-27 20:12:00,
2013-03-27 16:43:00,59.0,20.0,-100.00,West,263,2.0,8.0,22,0.00,,,0.00,771.000000,,2013-03-27 20:43:00,
2013-03-27 16:52:00,59.0,20.0,-100.00,West,263,2.0,8.0,22,0.00,,,0.00,771.000000,,2013-03-27 20:52:00,
2013-03-27 17:02:00,59.0,20.0,-100.00,West,263,2.0,8.0,22,0.00,,,0.00,771.000000,,2013-03-27 21:02:00,
2013-03-27 17:12:00,58.0,19.0,-100.00,WNW,286,2.0,7.0,22,0.00,,,0.00,526.000000,,2013-03-27 21:12:00,
2013-03-27 17:32:00,58.0,19.0,-100.00,WNW,286,2.0,7.0,22,0.00,,,0.00,526.000000,,2013-03-27 21:32:00,
2013-03-27 17:44:00,58.0,19.0,-100.00,WNW,286,2.0,7.0,22,0.00,,,0.00,526.000000,,2013-03-27 21:44:00,
2013-03-27 17:52:00,58.0,19.0,-100.00,WNW,286,2.0,7.0,22,0.00,,,0.00,526.000000,,2013-03-27 21:52:00,
2013-03-27 18:03:00,58.0,19.0,-100.00,WNW,286,2.0,7.0,22,0.00,,,0.00,526.000000,,2013-03-27 22:03:00,
2013-03-27 18:12:00,56.0,18.0,-100.00,NW,317,2.0,6.0,22,0.00,,,0.00,102.000000,,2013-03-27 22:12:00,
2013-03-27 18:42:00,56.0,18.0,-100.00,NW,317,2.0,6.0,22,0.00,,,0.00,102.000000,,2013-03-27 22:42:00,
2013-03-27 18:53:00,56.0,18.0,-100.00,NW,317,2.0,6.0,22,0.00,,,0.00,102.000000,,2013-03-27 22:53:00,
2013-03-27 19:03:00,56.0,18.0,-100.00,NW,317,2.0,6.0,22,0.00,,,0.00,102.000000,,2013-03-27 23:03:00,
2013-03-27 19:12:00,54.0,22.0,-100.00,SSW,203,0.0,6.0,28,0.00,,,0.00,68.000000,,2013-03-27 23:12:00,
2013-03-27 19:43:00,54.0,22.0,-100.00,SSW,203,0.0,6.0,28,0.00,,,0.00,68.000000,,2013-03-27 23:43:00,
2013-03-27 19:52:00,54.0,22.0,-100.00,SSW,203,0.0,6.0,28,0.00,,,0.00,68.000000,,2013-03-27 23:52:00,
2013-03-27 20:02:00,54.0,22.0,-100.00,SSW,203,0.0,6.0,28,0.00,,,0.00,68.000000,,2013-03-28 00:02:00,